sensor_id;sensor_type;location;lat;lon;timestamp;P1;durP1;ratioP1;P2;durP2;ratioP2
1753;SDS011;58380;48.312;9.246;2024-02-04T07:48:21;2.88;;;1.42;;
1753;SDS011;58380;48.312;9.246;2024-02-04T07:51:22;3.72;;;1.70;;
1753;SDS011;58380;48.312;9.246;2024-02-04T07:54:22;1.98;;;0.80;;
1753;SDS011;58380;48.312;9.246;2024-02-04T07:57:25;1.30;;;0.85;;
1753;SDS011;58380;48.312;9.246;2024-02-04T08:00:25;1.15;;;0.68;;
1753;SDS011;58380;48.312;9.246;2024-02-04T08:03:26;0.75;;;0.50;;
1753;SDS011;58380;48.312;9.246;2024-02-04T08:06:26;1.05;;;0.90;;
1753;SDS011;58380;48.312;9.246;2024-02-04T08:09:27;5.25;;;2.40;;
1753;SDS011;58380;48.312;9.246;2024-02-04T08:12:27;1.70;;;0.80;;
1753;SDS011;58380;48.312;9.246;2024-02-04T08:15:27;2.38;;;0.98;;
1753;SDS011;58380;48.312;9.246;2024-02-04T08:18:28;4.28;;;1.58;;
1753;SDS011;58380;48.312;9.246;2024-02-04T08:21:28;3.60;;;0.82;;
1753;SDS011;58380;48.312;9.246;2024-02-04T08:24:32;1.05;;;0.60;;
1753;SDS011;58380;48.312;9.246;2024-02-04T08:27:33;2.45;;;1.52;;
1753;SDS011;58380;48.312;9.246;2024-02-04T08:30:33;20.10;;;9.52;;
1753;SDS011;58380;48.312;9.246;2024-02-04T08:33:34;8.50;;;3.65;;
1753;SDS011;58380;48.312;9.246;2024-02-04T08:36:34;10.05;;;4.97;;
1753;SDS011;58380;48.312;9.246;2024-02-04T08:39:34;15.18;;;6.93;;
1753;SDS011;58380;48.312;9.246;2024-02-04T08:42:35;11.38;;;5.68;;
1753;SDS011;58380;48.312;9.246;2024-02-04T08:45:35;18.73;;;9.93;;
1753;SDS011;58380;48.312;9.246;2024-02-04T08:48:36;8.55;;;4.55;;
1753;SDS011;58380;48.312;9.246;2024-02-04T08:51:37;10.25;;;5.68;;
1753;SDS011;58380;48.312;9.246;2024-02-04T08:54:37;17.17;;;9.30;;
1753;SDS011;58380;48.312;9.246;2024-02-04T08:57:37;8.63;;;5.32;;
1753;SDS011;58380;48.312;9.246;2024-02-04T09:00:38;6.32;;;3.90;;
1753;SDS011;58380;48.312;9.246;2024-02-04T09:03:38;6.80;;;2.95;;
1753;SDS011;58380;48.312;9.246;2024-02-04T09:06:39;4.97;;;2.13;;
1753;SDS011;58380;48.312;9.246;2024-02-04T09:09:39;3.13;;;1.80;;
1753;SDS011;58380;48.312;9.246;2024-02-04T09:12:41;6.45;;;3.25;;
1753;SDS011;58380;48.312;9.246;2024-02-04T09:15:41;5.80;;;3.20;;
1753;SDS011;58380;48.312;9.246;2024-02-04T09:18:42;5.38;;;2.92;;
1753;SDS011;58380;48.312;9.246;2024-02-04T09:21:42;1.70;;;1.00;;
1753;SDS011;58380;48.312;9.246;2024-02-04T09:24:42;3.88;;;2.17;;
1753;SDS011;58380;48.312;9.246;2024-02-04T09:27:43;1.17;;;0.70;;
1753;SDS011;58380;48.312;9.246;2024-02-04T09:30:43;1.50;;;0.82;;
1753;SDS011;58380;48.312;9.246;2024-02-04T09:33:44;1.40;;;0.75;;
1753;SDS011;58380;48.312;9.246;2024-02-04T09:36:44;3.65;;;1.30;;
1753;SDS011;58380;48.312;9.246;2024-02-04T09:39:44;4.15;;;2.42;;
1753;SDS011;58380;48.312;9.246;2024-02-04T09:42:45;2.35;;;1.40;;
1753;SDS011;58380;48.312;9.246;2024-02-04T09:45:45;2.00;;;1.33;;
1753;SDS011;58380;48.312;9.246;2024-02-04T09:48:49;1.63;;;1.10;;
1753;SDS011;58380;48.312;9.246;2024-02-04T09:51:52;0.80;;;0.30;;
1753;SDS011;58380;48.312;9.246;2024-02-04T09:54:55;1.08;;;0.52;;
1753;SDS011;58380;48.312;9.246;2024-02-04T09:58:00;3.50;;;1.13;;
1753;SDS011;58380;48.312;9.246;2024-02-04T10:01:04;2.42;;;1.20;;
1753;SDS011;58380;48.312;9.246;2024-02-04T10:04:05;2.35;;;1.20;;
1753;SDS011;58380;48.312;9.246;2024-02-04T10:07:06;1.15;;;0.55;;
1753;SDS011;58380;48.312;9.246;2024-02-04T10:10:06;0.95;;;0.43;;
1753;SDS011;58380;48.312;9.246;2024-02-04T10:13:08;1.80;;;0.98;;
1753;SDS011;58380;48.312;9.246;2024-02-04T10:16:09;0.95;;;0.50;;
1753;SDS011;58380;48.312;9.246;2024-02-04T10:19:10;1.17;;;0.30;;
1753;SDS011;58380;48.312;9.246;2024-02-04T10:22:11;0.93;;;0.40;;
1753;SDS011;58380;48.312;9.246;2024-02-04T10:25:12;0.73;;;0.30;;
1753;SDS011;58380;48.312;9.246;2024-02-04T10:28:13;0.85;;;0.20;;
1753;SDS011;58380;48.312;9.246;2024-02-04T10:31:15;1.38;;;0.73;;
1753;SDS011;58380;48.312;9.246;2024-02-04T10:34:15;1.40;;;0.50;;
1753;SDS011;58380;48.312;9.246;2024-02-04T10:37:16;0.65;;;0.28;;
1753;SDS011;58380;48.312;9.246;2024-02-04T10:40:16;1.20;;;0.50;;
1753;SDS011;58380;48.312;9.246;2024-02-04T10:43:17;0.95;;;0.40;;
1753;SDS011;58380;48.312;9.246;2024-02-04T10:46:19;0.63;;;0.20;;
1753;SDS011;58380;48.312;9.246;2024-02-04T10:49:20;0.60;;;0.35;;
1753;SDS011;58380;48.312;9.246;2024-02-04T10:52:27;1.30;;;0.28;;
1753;SDS011;58380;48.312;9.246;2024-02-04T10:55:29;1.08;;;0.50;;
1753;SDS011;58380;48.312;9.246;2024-02-04T10:58:31;1.05;;;0.40;;
1753;SDS011;58380;48.312;9.246;2024-02-04T11:01:34;1.00;;;0.38;;
1753;SDS011;58380;48.312;9.246;2024-02-04T11:04:36;1.67;;;0.70;;
1753;SDS011;58380;48.312;9.246;2024-02-04T11:07:38;2.40;;;0.50;;
1753;SDS011;58380;48.312;9.246;2024-02-04T11:10:39;2.50;;;0.75;;
1753;SDS011;58380;48.312;9.246;2024-02-04T11:13:41;0.95;;;0.40;;
1753;SDS011;58380;48.312;9.246;2024-02-04T11:26:51;0.88;;;0.40;;
1753;SDS011;58380;48.312;9.246;2024-02-04T11:29:52;1.13;;;0.30;;
1753;SDS011;58380;48.312;9.246;2024-02-04T11:32:53;1.73;;;0.30;;
1753;SDS011;58380;48.312;9.246;2024-02-04T11:36:03;5.32;;;1.40;;
1753;SDS011;58380;48.312;9.246;2024-02-04T11:39:14;0.32;;;0.20;;
1753;SDS011;58380;48.312;9.246;2024-02-04T11:42:22;0.45;;;0.30;;
1753;SDS011;58380;48.312;9.246;2024-02-04T11:45:26;1.88;;;0.88;;
1753;SDS011;58380;48.312;9.246;2024-02-04T11:48:29;1.45;;;0.43;;
1753;SDS011;58380;48.312;9.246;2024-02-04T11:51:32;2.03;;;0.60;;
1753;SDS011;58380;48.312;9.246;2024-02-04T11:54:33;0.50;;;0.30;;
1753;SDS011;58380;48.312;9.246;2024-02-04T11:57:33;0.75;;;0.32;;
1753;SDS011;58380;48.312;9.246;2024-02-04T12:00:34;2.42;;;0.68;;
1753;SDS011;58380;48.312;9.246;2024-02-04T12:03:36;2.28;;;0.95;;
1753;SDS011;58380;48.312;9.246;2024-02-04T12:06:38;1.23;;;0.77;;
1753;SDS011;58380;48.312;9.246;2024-02-04T12:09:41;0.82;;;0.20;;
1753;SDS011;58380;48.312;9.246;2024-02-04T12:12:42;0.70;;;0.30;;
1753;SDS011;58380;48.312;9.246;2024-02-04T12:15:43;0.70;;;0.25;;
1753;SDS011;58380;48.312;9.246;2024-02-04T12:18:48;1.10;;;0.70;;
1753;SDS011;58380;48.312;9.246;2024-02-04T12:21:49;0.52;;;0.40;;
1753;SDS011;58380;48.312;9.246;2024-02-04T12:24:50;0.60;;;0.32;;
1753;SDS011;58380;48.312;9.246;2024-02-04T12:27:51;0.88;;;0.17;;
1753;SDS011;58380;48.312;9.246;2024-02-04T12:30:54;0.77;;;0.20;;
1753;SDS011;58380;48.312;9.246;2024-02-04T12:33:59;0.30;;;0.30;;
1753;SDS011;58380;48.312;9.246;2024-02-04T12:37:01;1.85;;;0.43;;
1753;SDS011;58380;48.312;9.246;2024-02-04T12:40:02;0.35;;;0.20;;
1753;SDS011;58380;48.312;9.246;2024-02-04T12:43:03;0.20;;;0.10;;
1753;SDS011;58380;48.312;9.246;2024-02-04T12:46:04;0.45;;;0.22;;
1753;SDS011;58380;48.312;9.246;2024-02-04T12:49:05;0.63;;;0.40;;
1753;SDS011;58380;48.312;9.246;2024-02-04T12:52:06;0.52;;;0.20;;
1753;SDS011;58380;48.312;9.246;2024-02-04T12:55:07;1.35;;;0.30;;
1753;SDS011;58380;48.312;9.246;2024-02-04T12:58:11;1.08;;;0.20;;
1753;SDS011;58380;48.312;9.246;2024-02-04T13:01:14;0.82;;;0.47;;
1753;SDS011;58380;48.312;9.246;2024-02-04T13:04:15;0.70;;;0.22;;
1753;SDS011;58380;48.312;9.246;2024-02-04T13:07:15;1.23;;;0.28;;
1753;SDS011;58380;48.312;9.246;2024-02-04T13:10:18;0.28;;;0.25;;
1753;SDS011;58380;48.312;9.246;2024-02-04T13:13:19;0.63;;;0.20;;
1753;SDS011;58380;48.312;9.246;2024-02-04T13:16:20;0.82;;;0.35;;
1753;SDS011;58380;48.312;9.246;2024-02-04T13:19:22;0.52;;;0.47;;
1753;SDS011;58380;48.312;9.246;2024-02-04T13:22:23;1.55;;;0.50;;
1753;SDS011;58380;48.312;9.246;2024-02-04T13:25:23;1.52;;;0.57;;
1753;SDS011;58380;48.312;9.246;2024-02-04T13:28:24;2.92;;;0.80;;
1753;SDS011;58380;48.312;9.246;2024-02-04T13:31:24;1.13;;;0.63;;
1753;SDS011;58380;48.312;9.246;2024-02-04T13:34:24;3.97;;;2.22;;
1753;SDS011;58380;48.312;9.246;2024-02-04T13:37:25;0.88;;;0.43;;
1753;SDS011;58380;48.312;9.246;2024-02-04T13:40:25;0.60;;;0.20;;
1753;SDS011;58380;48.312;9.246;2024-02-04T13:43:26;0.70;;;0.22;;
1753;SDS011;58380;48.312;9.246;2024-02-04T13:46:26;0.88;;;0.47;;
1753;SDS011;58380;48.312;9.246;2024-02-04T13:49:27;1.88;;;0.63;;
1753;SDS011;58380;48.312;9.246;2024-02-04T13:52:27;1.58;;;0.40;;
1753;SDS011;58380;48.312;9.246;2024-02-04T13:55:28;0.75;;;0.20;;
1753;SDS011;58380;48.312;9.246;2024-02-04T13:58:28;1.27;;;0.40;;
1753;SDS011;58380;48.312;9.246;2024-02-04T14:01:29;1.05;;;0.40;;
1753;SDS011;58380;48.312;9.246;2024-02-04T14:04:29;2.90;;;0.80;;
1753;SDS011;58380;48.312;9.246;2024-02-04T14:07:31;1.70;;;0.40;;
1753;SDS011;58380;48.312;9.246;2024-02-04T14:10:32;0.85;;;0.20;;
1753;SDS011;58380;48.312;9.246;2024-02-04T14:13:32;2.08;;;0.50;;
1753;SDS011;58380;48.312;9.246;2024-02-04T14:16:33;1.35;;;0.40;;
1753;SDS011;58380;48.312;9.246;2024-02-04T14:19:33;1.15;;;0.70;;
1753;SDS011;58380;48.312;9.246;2024-02-04T14:22:34;6.85;;;2.80;;
1753;SDS011;58380;48.312;9.246;2024-02-04T14:25:35;1.00;;;0.57;;
1753;SDS011;58380;48.312;9.246;2024-02-04T14:28:35;0.90;;;0.40;;
1753;SDS011;58380;48.312;9.246;2024-02-04T14:31:41;1.60;;;0.32;;
1753;SDS011;58380;48.312;9.246;2024-02-04T14:34:41;1.38;;;0.40;;
1753;SDS011;58380;48.312;9.246;2024-02-04T14:37:42;0.20;;;0.20;;
1753;SDS011;58380;48.312;9.246;2024-02-04T14:40:42;0.85;;;0.50;;
1753;SDS011;58380;48.312;9.246;2024-02-04T14:43:43;1.90;;;0.40;;
1753;SDS011;58380;48.312;9.246;2024-02-04T14:46:43;1.02;;;0.50;;
1753;SDS011;58380;48.312;9.246;2024-02-04T14:49:45;1.42;;;0.50;;
1753;SDS011;58380;48.312;9.246;2024-02-04T14:52:46;1.17;;;0.50;;
1753;SDS011;58380;48.312;9.246;2024-02-04T14:55:47;1.05;;;0.57;;
1753;SDS011;58380;48.312;9.246;2024-02-04T14:58:47;1.73;;;0.80;;
1753;SDS011;58380;48.312;9.246;2024-02-04T15:01:47;0.60;;;0.40;;
1753;SDS011;58380;48.312;9.246;2024-02-04T15:04:48;1.27;;;0.60;;
1753;SDS011;58380;48.312;9.246;2024-02-04T15:07:49;1.27;;;0.80;;
1753;SDS011;58380;48.312;9.246;2024-02-04T15:10:51;2.08;;;0.77;;
1753;SDS011;58380;48.312;9.246;2024-02-04T15:13:51;2.15;;;0.50;;
1753;SDS011;58380;48.312;9.246;2024-02-04T15:16:53;0.40;;;0.28;;
1753;SDS011;58380;48.312;9.246;2024-02-04T15:19:57;0.85;;;0.50;;
1753;SDS011;58380;48.312;9.246;2024-02-04T15:22:58;1.02;;;0.60;;
1753;SDS011;58380;48.312;9.246;2024-02-04T15:26:00;0.93;;;0.40;;
1753;SDS011;58380;48.312;9.246;2024-02-04T15:29:04;3.67;;;0.40;;
1753;SDS011;58380;48.312;9.246;2024-02-04T15:32:05;2.42;;;0.50;;
1753;SDS011;58380;48.312;9.246;2024-02-04T15:35:06;3.38;;;0.90;;
1753;SDS011;58380;48.312;9.246;2024-02-04T15:38:07;1.48;;;0.80;;
1753;SDS011;58380;48.312;9.246;2024-02-04T15:41:07;6.82;;;3.35;;
1753;SDS011;58380;48.312;9.246;2024-02-04T15:44:09;1.20;;;0.80;;
1753;SDS011;58380;48.312;9.246;2024-02-04T15:47:10;0.80;;;0.40;;
1753;SDS011;58380;48.312;9.246;2024-02-04T15:50:12;0.93;;;0.60;;
1753;SDS011;58380;48.312;9.246;2024-02-04T15:53:13;0.90;;;0.50;;
1753;SDS011;58380;48.312;9.246;2024-02-04T15:56:14;1.60;;;0.80;;
1753;SDS011;58380;48.312;9.246;2024-02-04T15:59:24;1.90;;;0.60;;
1753;SDS011;58380;48.312;9.246;2024-02-04T16:02:28;1.30;;;0.98;;
1753;SDS011;58380;48.312;9.246;2024-02-04T16:05:31;1.63;;;0.75;;
1753;SDS011;58380;48.312;9.246;2024-02-04T16:08:32;1.35;;;0.60;;
1753;SDS011;58380;48.312;9.246;2024-02-04T16:11:35;0.60;;;0.40;;
1753;SDS011;58380;48.312;9.246;2024-02-04T16:14:53;0.52;;;0.38;;
1753;SDS011;58380;48.312;9.246;2024-02-04T16:17:58;0.82;;;0.50;;
1753;SDS011;58380;48.312;9.246;2024-02-04T16:20:59;0.45;;;0.20;;
1753;SDS011;58380;48.312;9.246;2024-02-04T16:23:59;0.90;;;0.50;;
1753;SDS011;58380;48.312;9.246;2024-02-04T16:27:00;0.70;;;0.40;;
1753;SDS011;58380;48.312;9.246;2024-02-04T16:30:00;2.25;;;0.82;;
1753;SDS011;58380;48.312;9.246;2024-02-04T16:33:01;1.45;;;0.75;;
1753;SDS011;58380;48.312;9.246;2024-02-04T16:36:02;0.90;;;0.50;;
1753;SDS011;58380;48.312;9.246;2024-02-04T16:39:05;2.88;;;1.48;;
1753;SDS011;58380;48.312;9.246;2024-02-04T16:42:05;1.90;;;1.00;;
1753;SDS011;58380;48.312;9.246;2024-02-04T16:45:08;2.92;;;1.20;;
1753;SDS011;58380;48.312;9.246;2024-02-04T16:48:09;4.03;;;1.60;;
1753;SDS011;58380;48.312;9.246;2024-02-04T16:51:10;3.05;;;1.20;;
1753;SDS011;58380;48.312;9.246;2024-02-04T16:54:10;2.58;;;1.20;;
1753;SDS011;58380;48.312;9.246;2024-02-04T16:57:10;1.23;;;0.80;;
1753;SDS011;58380;48.312;9.246;2024-02-04T17:00:12;1.17;;;0.77;;
1753;SDS011;58380;48.312;9.246;2024-02-04T17:03:15;1.40;;;0.80;;
1753;SDS011;58380;48.312;9.246;2024-02-04T17:06:16;1.10;;;0.60;;
1753;SDS011;58380;48.312;9.246;2024-02-04T17:09:17;1.08;;;0.57;;
1753;SDS011;58380;48.312;9.246;2024-02-04T17:12:19;2.60;;;1.10;;
1753;SDS011;58380;48.312;9.246;2024-02-04T17:15:20;3.38;;;1.10;;
1753;SDS011;58380;48.312;9.246;2024-02-04T17:18:35;1.50;;;0.80;;
1753;SDS011;58380;48.312;9.246;2024-02-04T17:21:53;3.58;;;1.63;;
1753;SDS011;58380;48.312;9.246;2024-02-04T17:24:57;0.98;;;0.50;;
1753;SDS011;58380;48.312;9.246;2024-02-04T17:28:04;5.57;;;2.50;;
1753;SDS011;58380;48.312;9.246;2024-02-04T17:31:06;1.92;;;0.80;;
1753;SDS011;58380;48.312;9.246;2024-02-04T17:34:07;2.05;;;0.80;;
1753;SDS011;58380;48.312;9.246;2024-02-04T17:37:08;3.78;;;1.67;;
1753;SDS011;58380;48.312;9.246;2024-02-04T17:40:09;2.53;;;1.15;;
1753;SDS011;58380;48.312;9.246;2024-02-04T17:43:10;1.02;;;0.70;;
1753;SDS011;58380;48.312;9.246;2024-02-04T17:46:11;1.23;;;0.70;;
1753;SDS011;58380;48.312;9.246;2024-02-04T17:49:11;15.80;;;6.32;;
1753;SDS011;58380;48.312;9.246;2024-02-04T17:52:12;8.10;;;2.90;;
1753;SDS011;58380;48.312;9.246;2024-02-04T17:55:12;5.38;;;2.83;;
1753;SDS011;58380;48.312;9.246;2024-02-04T17:58:13;1.67;;;0.70;;
1753;SDS011;58380;48.312;9.246;2024-02-04T18:01:19;1.25;;;0.60;;
1753;SDS011;58380;48.312;9.246;2024-02-04T18:04:21;1.20;;;0.77;;
1753;SDS011;58380;48.312;9.246;2024-02-04T18:07:21;2.65;;;1.08;;
1753;SDS011;58380;48.312;9.246;2024-02-04T18:10:22;2.20;;;1.00;;
1753;SDS011;58380;48.312;9.246;2024-02-04T18:13:22;2.58;;;1.35;;
1753;SDS011;58380;48.312;9.246;2024-02-04T18:16:23;1.90;;;0.65;;
1753;SDS011;58380;48.312;9.246;2024-02-04T18:19:24;2.83;;;0.95;;
1753;SDS011;58380;48.312;9.246;2024-02-04T18:22:24;3.17;;;1.20;;
1753;SDS011;58380;48.312;9.246;2024-02-04T18:25:24;1.58;;;1.00;;
1753;SDS011;58380;48.312;9.246;2024-02-04T18:28:25;3.30;;;1.20;;
1753;SDS011;58380;48.312;9.246;2024-02-04T18:31:25;2.08;;;1.52;;
1753;SDS011;58380;48.312;9.246;2024-02-04T18:34:29;1.88;;;1.25;;
1753;SDS011;58380;48.312;9.246;2024-02-04T18:37:29;4.35;;;1.65;;
1753;SDS011;58380;48.312;9.246;2024-02-04T18:40:30;2.22;;;1.10;;
1753;SDS011;58380;48.312;9.246;2024-02-04T18:43:30;1.10;;;0.90;;
1753;SDS011;58380;48.312;9.246;2024-02-04T18:46:30;1.15;;;0.80;;
1753;SDS011;58380;48.312;9.246;2024-02-04T18:49:31;2.60;;;1.10;;
1753;SDS011;58380;48.312;9.246;2024-02-04T18:52:34;11.60;;;5.38;;
1753;SDS011;58380;48.312;9.246;2024-02-04T18:55:36;2.65;;;1.48;;
1753;SDS011;58380;48.312;9.246;2024-02-04T18:58:38;3.92;;;1.92;;
1753;SDS011;58380;48.312;9.246;2024-02-04T19:01:39;3.38;;;2.00;;
1753;SDS011;58380;48.312;9.246;2024-02-04T19:04:39;3.40;;;1.60;;
1753;SDS011;58380;48.312;9.246;2024-02-04T19:07:40;3.58;;;2.13;;
1753;SDS011;58380;48.312;9.246;2024-02-04T19:10:41;7.88;;;3.85;;
1753;SDS011;58380;48.312;9.246;2024-02-04T19:13:42;7.28;;;4.30;;
1753;SDS011;58380;48.312;9.246;2024-02-04T19:16:42;6.25;;;3.70;;
1753;SDS011;58380;48.312;9.246;2024-02-04T19:19:42;1.75;;;0.85;;
1753;SDS011;58380;48.312;9.246;2024-02-04T19:22:43;2.22;;;1.00;;
1753;SDS011;58380;48.312;9.246;2024-02-04T19:25:43;2.67;;;1.10;;
1753;SDS011;58380;48.312;9.246;2024-02-04T19:28:44;1.77;;;0.93;;
1753;SDS011;58380;48.312;9.246;2024-02-04T19:31:44;2.08;;;1.17;;
1753;SDS011;58380;48.312;9.246;2024-02-04T19:34:45;2.25;;;1.08;;
1753;SDS011;58380;48.312;9.246;2024-02-04T19:37:45;2.25;;;1.10;;
1753;SDS011;58380;48.312;9.246;2024-02-04T19:40:47;0.70;;;0.50;;
1753;SDS011;58380;48.312;9.246;2024-02-04T19:43:47;1.48;;;1.00;;
1753;SDS011;58380;48.312;9.246;2024-02-04T19:46:47;1.17;;;0.80;;
1753;SDS011;58380;48.312;9.246;2024-02-04T19:49:48;3.70;;;1.92;;
1753;SDS011;58380;48.312;9.246;2024-02-04T19:52:48;2.30;;;1.30;;
1753;SDS011;58380;48.312;9.246;2024-02-04T19:55:49;1.10;;;0.70;;
1753;SDS011;58380;48.312;9.246;2024-02-04T19:58:49;1.05;;;0.45;;
1753;SDS011;58380;48.312;9.246;2024-02-04T20:01:49;1.23;;;0.70;;
1753;SDS011;58380;48.312;9.246;2024-02-04T20:04:51;2.50;;;1.20;;
1753;SDS011;58380;48.312;9.246;2024-02-04T20:07:52;1.63;;;0.80;;
1753;SDS011;58380;48.312;9.246;2024-02-04T20:10:52;1.73;;;1.00;;
1753;SDS011;58380;48.312;9.246;2024-02-04T20:13:53;1.83;;;0.68;;
1753;SDS011;58380;48.312;9.246;2024-02-04T20:16:53;1.60;;;0.90;;
1753;SDS011;58380;48.312;9.246;2024-02-04T20:19:54;1.65;;;1.05;;
1753;SDS011;58380;48.312;9.246;2024-02-04T20:22:57;4.13;;;2.45;;
1753;SDS011;58380;48.312;9.246;2024-02-04T20:25:57;5.10;;;2.92;;
1753;SDS011;58380;48.312;9.246;2024-02-04T20:28:58;4.07;;;1.80;;
1753;SDS011;58380;48.312;9.246;2024-02-04T20:31:58;2.88;;;1.55;;
1753;SDS011;58380;48.312;9.246;2024-02-04T20:34:59;1.67;;;0.98;;
1753;SDS011;58380;48.312;9.246;2024-02-04T20:37:59;2.00;;;0.90;;
1753;SDS011;58380;48.312;9.246;2024-02-04T20:41:00;5.85;;;1.30;;
1753;SDS011;58380;48.312;9.246;2024-02-04T20:44:00;2.13;;;1.10;;
1753;SDS011;58380;48.312;9.246;2024-02-04T20:47:01;1.70;;;0.68;;
1753;SDS011;58380;48.312;9.246;2024-02-04T20:50:02;2.25;;;1.08;;
1753;SDS011;58380;48.312;9.246;2024-02-04T20:53:04;2.63;;;0.77;;
1753;SDS011;58380;48.312;9.246;2024-02-04T20:56:05;1.02;;;0.70;;
1753;SDS011;58380;48.312;9.246;2024-02-04T20:59:05;1.10;;;0.60;;
1753;SDS011;58380;48.312;9.246;2024-02-04T21:02:05;2.30;;;0.90;;
1753;SDS011;58380;48.312;9.246;2024-02-04T21:05:06;1.85;;;0.80;;
1753;SDS011;58380;48.312;9.246;2024-02-04T21:08:07;3.10;;;0.98;;
1753;SDS011;58380;48.312;9.246;2024-02-04T21:11:08;1.10;;;0.60;;
1753;SDS011;58380;48.312;9.246;2024-02-04T21:14:08;1.60;;;0.90;;
1753;SDS011;58380;48.312;9.246;2024-02-04T21:17:09;2.42;;;1.25;;
1753;SDS011;58380;48.312;9.246;2024-02-04T21:20:11;2.90;;;1.20;;
1753;SDS011;58380;48.312;9.246;2024-02-04T21:23:13;2.10;;;0.80;;
1753;SDS011;58380;48.312;9.246;2024-02-04T21:26:15;2.33;;;1.05;;
1753;SDS011;58380;48.312;9.246;2024-02-04T21:29:15;0.95;;;0.60;;
1753;SDS011;58380;48.312;9.246;2024-02-04T21:32:16;1.27;;;0.60;;
1753;SDS011;58380;48.312;9.246;2024-02-04T21:35:18;1.50;;;0.65;;
1753;SDS011;58380;48.312;9.246;2024-02-04T21:38:18;0.98;;;0.68;;
1753;SDS011;58380;48.312;9.246;2024-02-04T21:41:19;0.95;;;0.60;;
1753;SDS011;58380;48.312;9.246;2024-02-04T21:44:20;0.90;;;0.30;;
1753;SDS011;58380;48.312;9.246;2024-02-04T21:47:21;1.25;;;0.60;;
1753;SDS011;58380;48.312;9.246;2024-02-04T21:50:22;0.82;;;0.30;;
1753;SDS011;58380;48.312;9.246;2024-02-04T21:53:22;0.40;;;0.30;;
1753;SDS011;58380;48.312;9.246;2024-02-04T21:56:22;1.17;;;0.30;;
1753;SDS011;58380;48.312;9.246;2024-02-04T21:59:23;0.73;;;0.40;;
1753;SDS011;58380;48.312;9.246;2024-02-04T22:02:24;2.55;;;1.00;;
1753;SDS011;58380;48.312;9.246;2024-02-04T22:05:24;3.97;;;1.75;;
1753;SDS011;58380;48.312;9.246;2024-02-04T22:08:25;2.92;;;1.13;;
1753;SDS011;58380;48.312;9.246;2024-02-04T22:11:25;3.42;;;1.42;;
1753;SDS011;58380;48.312;9.246;2024-02-04T22:14:26;3.78;;;1.38;;
1753;SDS011;58380;48.312;9.246;2024-02-04T22:17:27;2.40;;;1.00;;
